sensor_id;sensor_type;location;lat;lon;timestamp;pressure;altitude;pressure_sealevel;temperature;humidity
9187;BME280;7273;48.902;9.410;2022-11-12T00:01:14;99615.31;;;6.68;82.23
9187;BME280;7273;48.902;9.410;2022-11-12T00:03:40;99609.38;;;6.66;81.96
9187;BME280;7273;48.902;9.410;2022-11-12T00:06:06;99605.63;;;6.67;82.55
9187;BME280;7273;48.902;9.410;2022-11-12T00:08:31;99605.38;;;6.75;81.69
9187;BME280;7273;48.902;9.410;2022-11-12T00:10:57;99604.13;;;6.77;82.10
9187;BME280;7273;48.902;9.410;2022-11-12T00:13:22;99611.59;;;6.75;81.91
9187;BME280;7273;48.902;9.410;2022-11-12T00:15:48;99599.63;;;6.65;81.74
9187;BME280;7273;48.902;9.410;2022-11-12T00:18:13;99607.47;;;6.66;82.17
9187;BME280;7273;48.902;9.410;2022-11-12T00:20:39;99606.47;;;6.61;81.44
9187;BME280;7273;48.902;9.410;2022-11-12T00:23:04;99606.28;;;6.56;81.78
9187;BME280;7273;48.902;9.410;2022-11-12T00:25:30;99614.16;;;6.57;82.00
9187;BME280;7273;48.902;9.410;2022-11-12T00:28:04;99615.41;;;6.48;82.08
9187;BME280;7273;48.902;9.410;2022-11-12T00:30:29;99609.00;;;6.49;82.41
9187;BME280;7273;48.902;9.410;2022-11-12T00:32:55;99612.94;;;6.40;82.80
9187;BME280;7273;48.902;9.410;2022-11-12T00:35:20;99604.91;;;6.34;83.01
9187;BME280;7273;48.902;9.410;2022-11-12T00:37:46;99608.25;;;6.29;82.64
9187;BME280;7273;48.902;9.410;2022-11-12T00:40:11;99602.00;;;6.35;82.83
9187;BME280;7273;48.902;9.410;2022-11-12T00:42:37;99599.50;;;6.40;82.64
9187;BME280;7273;48.902;9.410;2022-11-12T00:45:02;99597.00;;;6.52;82.33
9187;BME280;7273;48.902;9.410;2022-11-12T00:47:28;99599.50;;;6.47;82.92
9187;BME280;7273;48.902;9.410;2022-11-12T00:49:53;99587.09;;;6.46;82.38
9187;BME280;7273;48.902;9.410;2022-11-12T00:52:19;99589.97;;;6.51;82.61
9187;BME280;7273;48.902;9.410;2022-11-12T00:54:44;99598.84;;;6.51;82.06
9187;BME280;7273;48.902;9.410;2022-11-12T00:57:10;99603.44;;;6.44;81.76
9187;BME280;7273;48.902;9.410;2022-11-12T00:59:35;99596.81;;;6.47;82.05
9187;BME280;7273;48.902;9.410;2022-11-12T01:02:00;99602.41;;;6.39;82.08
9187;BME280;7273;48.902;9.410;2022-11-12T01:04:26;99616.09;;;6.31;81.63
9187;BME280;7273;48.902;9.410;2022-11-12T01:06:51;99607.41;;;6.29;82.08
9187;BME280;7273;48.902;9.410;2022-11-12T01:09:17;99615.69;;;6.27;82.08
9187;BME280;7273;48.902;9.410;2022-11-12T01:11:42;99612.19;;;6.27;82.34
9187;BME280;7273;48.902;9.410;2022-11-12T01:14:08;99613.22;;;6.19;81.98
9187;BME280;7273;48.902;9.410;2022-11-12T01:16:37;99605.59;;;6.10;82.22
9187;BME280;7273;48.902;9.410;2022-11-12T01:19:06;99600.63;;;6.13;81.89
9187;BME280;7273;48.902;9.410;2022-11-12T01:21:37;99599.56;;;6.27;82.04
9187;BME280;7273;48.902;9.410;2022-11-12T01:24:03;99588.41;;;6.24;82.30
9187;BME280;7273;48.902;9.410;2022-11-12T01:26:28;99594.41;;;6.19;82.22
9187;BME280;7273;48.902;9.410;2022-11-12T01:28:54;99587.44;;;6.12;81.91
9187;BME280;7273;48.902;9.410;2022-11-12T01:31:26;99589.50;;;6.03;82.10
9187;BME280;7273;48.902;9.410;2022-11-12T01:33:54;99585.16;;;6.09;82.38
9187;BME280;7273;48.902;9.410;2022-11-12T01:36:20;99585.56;;;5.99;82.24
9187;BME280;7273;48.902;9.410;2022-11-12T01:38:47;99580.84;;;5.95;82.08
9187;BME280;7273;48.902;9.410;2022-11-12T01:41:19;99580.63;;;5.90;82.14
9187;BME280;7273;48.902;9.410;2022-11-12T01:43:45;99581.47;;;5.84;82.71
9187;BME280;7273;48.902;9.410;2022-11-12T01:46:25;99575.28;;;5.83;82.08
9187;BME280;7273;48.902;9.410;2022-11-12T01:48:55;99567.22;;;5.70;82.32
9187;BME280;7273;48.902;9.410;2022-11-12T01:51:24;99567.81;;;5.79;82.75
9187;BME280;7273;48.902;9.410;2022-11-12T01:53:53;99574.66;;;5.55;82.27
9187;BME280;7273;48.902;9.410;2022-11-12T01:56:22;99579.22;;;5.68;82.37
9187;BME280;7273;48.902;9.410;2022-11-12T01:58:54;99572.81;;;5.49;82.46
9187;BME280;7273;48.902;9.410;2022-11-12T02:01:21;99573.84;;;5.61;82.64
9187;BME280;7273;48.902;9.410;2022-11-12T02:03:46;99569.91;;;5.44;82.59
9187;BME280;7273;48.902;9.410;2022-11-12T02:06:13;99557.34;;;5.38;82.56
9187;BME280;7273;48.902;9.410;2022-11-12T02:08:40;99558.56;;;5.29;82.42
9187;BME280;7273;48.902;9.410;2022-11-12T02:11:19;99558.34;;;5.24;82.54
9187;BME280;7273;48.902;9.410;2022-11-12T02:13:47;99563.91;;;5.22;82.90
9187;BME280;7273;48.902;9.410;2022-11-12T02:16:36;99562.91;;;5.23;83.09
9187;BME280;7273;48.902;9.410;2022-11-12T02:19:04;99563.13;;;5.22;83.21
9187;BME280;7273;48.902;9.410;2022-11-12T02:21:30;99557.34;;;5.25;82.81
9187;BME280;7273;48.902;9.410;2022-11-12T02:26:40;99559.59;;;5.28;83.03
9187;BME280;7273;48.902;9.410;2022-11-12T02:29:07;99560.66;;;5.27;82.78
9187;BME280;7273;48.902;9.410;2022-11-12T02:31:33;99556.91;;;5.28;82.45
9187;BME280;7273;48.902;9.410;2022-11-12T02:33:58;99550.72;;;5.21;82.54
9187;BME280;7273;48.902;9.410;2022-11-12T02:36:24;99552.19;;;5.30;82.48
9187;BME280;7273;48.902;9.410;2022-11-12T02:38:50;99551.56;;;5.21;82.14
9187;BME280;7273;48.902;9.410;2022-11-12T02:41:15;99548.84;;;5.08;81.93
9187;BME280;7273;48.902;9.410;2022-11-12T02:43:41;99549.06;;;5.07;82.51
9187;BME280;7273;48.902;9.410;2022-11-12T02:46:06;99548.88;;;5.15;82.50
9187;BME280;7273;48.902;9.410;2022-11-12T02:48:32;99549.28;;;5.12;82.41
9187;BME280;7273;48.902;9.410;2022-11-12T02:50:57;99541.22;;;4.99;82.11
9187;BME280;7273;48.902;9.410;2022-11-12T02:53:23;99552.94;;;4.85;82.46
9187;BME280;7273;48.902;9.410;2022-11-12T02:55:49;99551.28;;;4.84;82.99
9187;BME280;7273;48.902;9.410;2022-11-12T02:58:14;99548.63;;;4.84;83.15
9187;BME280;7273;48.902;9.410;2022-11-12T03:00:40;99547.38;;;4.86;83.26
9187;BME280;7273;48.902;9.410;2022-11-12T03:03:05;99546.78;;;4.97;82.93
9187;BME280;7273;48.902;9.410;2022-11-12T03:05:32;99553.59;;;5.00;83.33
9187;BME280;7273;48.902;9.410;2022-11-12T03:08:03;99559.16;;;5.05;83.29
9187;BME280;7273;48.902;9.410;2022-11-12T03:10:30;99561.22;;;5.16;83.65
9187;BME280;7273;48.902;9.410;2022-11-12T03:12:57;99559.59;;;5.21;83.38
9187;BME280;7273;48.902;9.410;2022-11-12T03:15:23;99557.34;;;5.18;83.12
9187;BME280;7273;48.902;9.410;2022-11-12T03:17:49;99559.81;;;5.33;83.27
9187;BME280;7273;48.902;9.410;2022-11-12T03:20:15;99553.41;;;5.27;82.72
9187;BME280;7273;48.902;9.410;2022-11-12T03:22:40;99560.00;;;5.25;82.72
9187;BME280;7273;48.902;9.410;2022-11-12T03:25:07;99558.13;;;5.25;82.70
9187;BME280;7273;48.902;9.410;2022-11-12T03:27:33;99551.13;;;5.18;82.73
9187;BME280;7273;48.902;9.410;2022-11-12T03:29:59;99551.53;;;5.15;82.70
9187;BME280;7273;48.902;9.410;2022-11-12T03:32:24;99542.66;;;5.21;82.80
9187;BME280;7273;48.902;9.410;2022-11-12T03:34:50;99547.41;;;5.19;82.77
9187;BME280;7273;48.902;9.410;2022-11-12T03:37:15;99543.91;;;5.18;82.71
9187;BME280;7273;48.902;9.410;2022-11-12T03:39:41;99543.28;;;5.03;82.64
9187;BME280;7273;48.902;9.410;2022-11-12T03:42:06;99539.56;;;4.98;82.68
9187;BME280;7273;48.902;9.410;2022-11-12T03:44:33;99537.50;;;5.13;82.75
9187;BME280;7273;48.902;9.410;2022-11-12T03:46:58;99530.31;;;5.13;82.76
9187;BME280;7273;48.902;9.410;2022-11-12T03:49:23;99546.81;;;5.10;82.70
9187;BME280;7273;48.902;9.410;2022-11-12T03:51:49;99548.63;;;4.97;82.36
9187;BME280;7273;48.902;9.410;2022-11-12T03:54:14;99546.38;;;5.00;82.76
9187;BME280;7273;48.902;9.410;2022-11-12T03:56:40;99543.69;;;5.07;83.07
9187;BME280;7273;48.902;9.410;2022-11-12T03:59:05;99544.72;;;5.12;82.61
9187;BME280;7273;48.902;9.410;2022-11-12T04:01:31;99543.09;;;5.11;82.60
9187;BME280;7273;48.902;9.410;2022-11-12T04:03:57;99546.19;;;5.08;82.32
9187;BME280;7273;48.902;9.410;2022-11-12T04:06:22;99541.22;;;5.05;82.22
9187;BME280;7273;48.902;9.410;2022-11-12T04:09:06;99542.03;;;5.06;82.50
9187;BME280;7273;48.902;9.410;2022-11-12T04:11:32;99544.72;;;5.19;82.49
9187;BME280;7273;48.902;9.410;2022-11-12T04:13:57;99550.72;;;5.21;82.57
9187;BME280;7273;48.902;9.410;2022-11-12T04:16:23;99551.97;;;5.12;82.46
9187;BME280;7273;48.902;9.410;2022-11-12T04:19:10;99547.19;;;5.07;82.50
9187;BME280;7273;48.902;9.410;2022-11-12T04:22:07;99554.03;;;5.16;82.41
9187;BME280;7273;48.902;9.410;2022-11-12T04:24:35;99551.13;;;5.18;82.28
9187;BME280;7273;48.902;9.410;2022-11-12T04:27:24;99549.91;;;5.14;82.67
9187;BME280;7273;48.902;9.410;2022-11-12T04:29:51;99552.56;;;5.07;82.67
9187;BME280;7273;48.902;9.410;2022-11-12T04:32:38;99537.50;;;5.13;82.90
9187;BME280;7273;48.902;9.410;2022-11-12T04:35:05;99536.88;;;5.11;83.01
9187;BME280;7273;48.902;9.410;2022-11-12T04:37:32;99544.56;;;5.20;83.21
9187;BME280;7273;48.902;9.410;2022-11-12T04:40:16;99535.03;;;5.18;82.72
9187;BME280;7273;48.902;9.410;2022-11-12T04:43:01;99535.03;;;5.31;82.94
9187;BME280;7273;48.902;9.410;2022-11-12T04:45:47;99539.56;;;5.37;83.11
9187;BME280;7273;48.902;9.410;2022-11-12T04:48:14;99540.41;;;5.37;82.88
9187;BME280;7273;48.902;9.410;2022-11-12T04:50:41;99547.41;;;5.38;82.62
9187;BME280;7273;48.902;9.410;2022-11-12T04:53:07;99539.56;;;5.37;82.23
9187;BME280;7273;48.902;9.410;2022-11-12T04:55:33;99545.34;;;5.47;82.71
9187;BME280;7273;48.902;9.410;2022-11-12T04:57:58;99542.88;;;5.45;82.46
9187;BME280;7273;48.902;9.410;2022-11-12T05:00:24;99544.13;;;5.49;82.64
9187;BME280;7273;48.902;9.410;2022-11-12T05:02:49;99545.53;;;5.59;82.47
9187;BME280;7273;48.902;9.410;2022-11-12T05:05:15;99554.84;;;5.69;82.58
9187;BME280;7273;48.902;9.410;2022-11-12T05:07:41;99552.78;;;5.58;82.19
9187;BME280;7273;48.902;9.410;2022-11-12T05:10:07;99554.44;;;5.59;82.29
9187;BME280;7273;48.902;9.410;2022-11-12T05:12:32;99556.06;;;5.67;82.21
9187;BME280;7273;48.902;9.410;2022-11-12T05:14:58;99551.94;;;5.64;82.03
9187;BME280;7273;48.902;9.410;2022-11-12T05:17:23;99560.81;;;5.45;81.92
9187;BME280;7273;48.902;9.410;2022-11-12T05:19:48;99555.28;;;5.40;82.33
9187;BME280;7273;48.902;9.410;2022-11-12T05:22:14;99552.97;;;5.50;82.49
9187;BME280;7273;48.902;9.410;2022-11-12T05:24:41;99552.59;;;5.46;82.36
9187;BME280;7273;48.902;9.410;2022-11-12T05:27:15;99549.50;;;5.56;82.25
9187;BME280;7273;48.902;9.410;2022-11-12T05:29:42;99543.50;;;5.41;82.35
9187;BME280;7273;48.902;9.410;2022-11-12T05:32:09;99548.25;;;5.39;82.36
9187;BME280;7273;48.902;9.410;2022-11-12T05:34:35;99547.81;;;5.48;82.52
9187;BME280;7273;48.902;9.410;2022-11-12T05:37:02;99548.44;;;5.44;82.49
9187;BME280;7273;48.902;9.410;2022-11-12T05:39:28;99553.19;;;5.42;82.20
9187;BME280;7273;48.902;9.410;2022-11-12T05:41:53;99554.66;;;5.38;82.41
9187;BME280;7273;48.902;9.410;2022-11-12T05:44:19;99549.91;;;5.33;82.18
9187;BME280;7273;48.902;9.410;2022-11-12T05:46:44;99544.94;;;5.37;82.71
9187;BME280;7273;48.902;9.410;2022-11-12T05:49:10;99553.19;;;5.29;82.48
9187;BME280;7273;48.902;9.410;2022-11-12T05:51:36;99558.75;;;5.27;82.57
9187;BME280;7273;48.902;9.410;2022-11-12T05:54:02;99558.13;;;5.25;82.73
9187;BME280;7273;48.902;9.410;2022-11-12T05:56:28;99553.81;;;5.11;82.77
9187;BME280;7273;48.902;9.410;2022-11-12T05:58:53;99555.44;;;5.06;82.98
9187;BME280;7273;48.902;9.410;2022-11-12T06:01:19;99559.78;;;5.00;82.98
9187;BME280;7273;48.902;9.410;2022-11-12T06:03:45;99568.03;;;4.99;83.22
9187;BME280;7273;48.902;9.410;2022-11-12T06:06:10;99569.47;;;5.01;83.17
9187;BME280;7273;48.902;9.410;2022-11-12T06:08:36;99575.66;;;5.02;83.23
9187;BME280;7273;48.902;9.410;2022-11-12T06:11:01;99568.63;;;5.01;83.35
9187;BME280;7273;48.902;9.410;2022-11-12T06:13:27;99574.00;;;5.07;83.16
9187;BME280;7273;48.902;9.410;2022-11-12T06:15:53;99579.78;;;5.11;83.21
9187;BME280;7273;48.902;9.410;2022-11-12T06:18:20;99577.09;;;4.98;83.19
9187;BME280;7273;48.902;9.410;2022-11-12T06:20:46;99578.13;;;4.97;83.21
9187;BME280;7273;48.902;9.410;2022-11-12T06:23:31;99567.22;;;5.05;83.62
9187;BME280;7273;48.902;9.410;2022-11-12T06:25:57;99578.56;;;5.07;83.07
9187;BME280;7273;48.902;9.410;2022-11-12T06:28:22;99578.56;;;5.00;83.39
9187;BME280;7273;48.902;9.410;2022-11-12T06:30:48;99585.56;;;5.08;83.18
9187;BME280;7273;48.902;9.410;2022-11-12T06:33:13;99585.56;;;5.14;83.34
9187;BME280;7273;48.902;9.410;2022-11-12T06:35:39;99585.16;;;5.11;83.00
9187;BME280;7273;48.902;9.410;2022-11-12T06:38:04;99588.25;;;5.14;82.89
9187;BME280;7273;48.902;9.410;2022-11-12T06:40:29;99581.25;;;5.26;83.16
9187;BME280;7273;48.902;9.410;2022-11-12T06:42:57;99579.00;;;5.17;82.30
9187;BME280;7273;48.902;9.410;2022-11-12T06:45:23;99574.44;;;5.11;82.55
9187;BME280;7273;48.902;9.410;2022-11-12T06:47:48;99575.88;;;5.07;82.65
9187;BME280;7273;48.902;9.410;2022-11-12T06:50:14;99570.09;;;5.10;82.65
9187;BME280;7273;48.902;9.410;2022-11-12T06:52:39;99573.41;;;5.12;82.66
9187;BME280;7273;48.902;9.410;2022-11-12T06:55:05;99572.56;;;5.11;82.81
9187;BME280;7273;48.902;9.410;2022-11-12T06:57:32;99573.19;;;5.07;82.84
9187;BME280;7273;48.902;9.410;2022-11-12T06:59:58;99572.16;;;5.08;82.73
9187;BME280;7273;48.902;9.410;2022-11-12T07:02:23;99573.22;;;5.13;82.94
9187;BME280;7273;48.902;9.410;2022-11-12T07:04:48;99576.91;;;5.12;83.00
9187;BME280;7273;48.902;9.410;2022-11-12T07:07:14;99570.94;;;5.23;82.30
9187;BME280;7273;48.902;9.410;2022-11-12T07:09:39;99569.28;;;5.22;82.93
9187;BME280;7273;48.902;9.410;2022-11-12T07:12:05;99580.22;;;5.21;82.94
9187;BME280;7273;48.902;9.410;2022-11-12T07:14:30;99589.94;;;5.28;83.00
9187;BME280;7273;48.902;9.410;2022-11-12T07:16:56;99581.69;;;5.43;83.18
9187;BME280;7273;48.902;9.410;2022-11-12T07:19:21;99574.84;;;5.47;82.91
9187;BME280;7273;48.902;9.410;2022-11-12T07:21:46;99563.72;;;5.50;82.72
9187;BME280;7273;48.902;9.410;2022-11-12T07:24:12;99568.47;;;5.48;83.12
9187;BME280;7273;48.902;9.410;2022-11-12T07:26:37;99579.41;;;5.60;82.86
9187;BME280;7273;48.902;9.410;2022-11-12T07:29:03;99572.59;;;5.64;82.98
9187;BME280;7273;48.902;9.410;2022-11-12T07:31:28;99573.63;;;5.76;82.83
9187;BME280;7273;48.902;9.410;2022-11-12T07:33:54;99583.72;;;5.74;82.48
9187;BME280;7273;48.902;9.410;2022-11-12T07:36:20;99581.47;;;5.77;82.60
9187;BME280;7273;48.902;9.410;2022-11-12T07:38:46;99580.44;;;5.91;82.62
9187;BME280;7273;48.902;9.410;2022-11-12T07:41:17;99581.69;;;5.82;82.40
9187;BME280;7273;48.902;9.410;2022-11-12T07:43:44;99576.72;;;5.92;82.60
9187;BME280;7273;48.902;9.410;2022-11-12T07:46:15;99577.53;;;5.93;82.03
9187;BME280;7273;48.902;9.410;2022-11-12T07:48:41;99577.13;;;5.96;82.39
9187;BME280;7273;48.902;9.410;2022-11-12T07:53:38;99576.06;;;6.03;82.29
9187;BME280;7273;48.902;9.410;2022-11-12T07:56:04;99576.69;;;6.05;82.28
9187;BME280;7273;48.902;9.410;2022-11-12T07:58:31;99579.16;;;6.13;82.86
9187;BME280;7273;48.902;9.410;2022-11-12T08:01:06;99571.06;;;6.20;82.25
9187;BME280;7273;48.902;9.410;2022-11-12T08:03:32;99572.50;;;6.22;82.46
9187;BME280;7273;48.902;9.410;2022-11-12T08:05:59;99572.06;;;6.32;82.05
9187;BME280;7273;48.902;9.410;2022-11-12T08:08:25;99576.63;;;6.31;82.11
9187;BME280;7273;48.902;9.410;2022-11-12T08:10:57;99569.78;;;6.35;82.00
9187;BME280;7273;48.902;9.410;2022-11-12T08:13:23;99581.75;;;6.39;82.30
9187;BME280;7273;48.902;9.410;2022-11-12T08:15:49;99576.13;;;6.47;82.51
9187;BME280;7273;48.902;9.410;2022-11-12T08:18:14;99576.31;;;6.52;82.58
9187;BME280;7273;48.902;9.410;2022-11-12T08:20:40;99579.81;;;6.59;82.35
9187;BME280;7273;48.902;9.410;2022-11-12T08:23:06;99576.31;;;6.59;81.87
9187;BME280;7273;48.902;9.410;2022-11-12T08:25:31;99569.00;;;6.72;82.36
9187;BME280;7273;48.902;9.410;2022-11-12T08:27:57;99583.84;;;6.81;82.65
9187;BME280;7273;48.902;9.410;2022-11-12T08:30:24;99580.72;;;6.84;81.81
9187;BME280;7273;48.902;9.410;2022-11-12T08:33:04;99571.16;;;6.95;82.10
9187;BME280;7273;48.902;9.410;2022-11-12T08:35:32;99577.09;;;7.04;82.37
9187;BME280;7273;48.902;9.410;2022-11-12T08:37:58;99572.16;;;7.25;82.18
9187;BME280;7273;48.902;9.410;2022-11-12T08:40:25;99570.03;;;7.83;81.83
9187;BME280;7273;48.902;9.410;2022-11-12T08:43:02;99559.38;;;8.67;81.58
9187;BME280;7273;48.902;9.410;2022-11-12T08:45:30;99559.53;;;9.54;81.51
9187;BME280;7273;48.902;9.410;2022-11-12T08:48:04;99562.25;;;10.12;81.83
9187;BME280;7273;48.902;9.410;2022-11-12T08:50:30;99557.34;;;10.60;82.08
9187;BME280;7273;48.902;9.410;2022-11-12T08:53:03;99557.59;;;11.15;82.70
9187;BME280;7273;48.902;9.410;2022-11-12T08:55:30;99568.94;;;11.73;82.09
9187;BME280;7273;48.902;9.410;2022-11-12T08:57:57;99563.38;;;12.39;82.01
9187;BME280;7273;48.902;9.410;2022-11-12T09:00:39;99560.88;;;12.54;83.26
9187;BME280;7273;48.902;9.410;2022-11-12T09:03:07;99556.31;;;13.03;82.56
9187;BME280;7273;48.902;9.410;2022-11-12T09:05:34;99569.81;;;12.33;84.21
9187;BME280;7273;48.902;9.410;2022-11-12T09:08:11;99572.88;;;12.37;84.29
9187;BME280;7273;48.902;9.410;2022-11-12T09:10:37;99563.50;;;12.06;85.00
9187;BME280;7273;48.902;9.410;2022-11-12T09:13:03;99565.72;;;11.76;84.67
9187;BME280;7273;48.902;9.410;2022-11-12T09:15:29;99568.28;;;11.38;84.97
9187;BME280;7273;48.902;9.410;2022-11-12T09:17:55;99568.16;;;11.61;84.34
9187;BME280;7273;48.902;9.410;2022-11-12T09:20:22;99565.44;;;11.61;83.16
9187;BME280;7273;48.902;9.410;2022-11-12T09:22:48;99559.84;;;11.51;82.08
9187;BME280;7273;48.902;9.410;2022-11-12T09:25:13;99554.25;;;11.24;81.97
9187;BME280;7273;48.902;9.410;2022-11-12T09:27:38;99550.66;;;10.91;82.08
9187;BME280;7273;48.902;9.410;2022-11-12T09:30:04;99554.00;;;10.81;82.30
9187;BME280;7273;48.902;9.410;2022-11-12T09:32:31;99550.28;;;10.59;82.65
9187;BME280;7273;48.902;9.410;2022-11-12T09:34:56;99547.69;;;10.64;82.39
9187;BME280;7273;48.902;9.410;2022-11-12T09:37:21;99544.41;;;10.62;82.27
9187;BME280;7273;48.902;9.410;2022-11-12T09:39:47;99553.22;;;10.57;81.75
9187;BME280;7273;48.902;9.410;2022-11-12T09:42:15;99543.69;;;10.66;81.50
9187;BME280;7273;48.902;9.410;2022-11-12T09:44:43;99541.03;;;10.55;81.43
9187;BME280;7273;48.902;9.410;2022-11-12T09:47:19;99544.84;;;10.70;81.13
9187;BME280;7273;48.902;9.410;2022-11-12T09:52:28;99549.16;;;10.83;80.36
9187;BME280;7273;48.902;9.410;2022-11-12T09:55:47;99547.19;;;10.78;80.39
9187;BME280;7273;48.902;9.410;2022-11-12T09:57:47;99545.97;;;10.86;79.95
9187;BME280;7273;48.902;9.410;2022-11-12T10:00:17;99540.13;;;10.77;79.92
9187;BME280;7273;48.902;9.410;2022-11-12T10:02:51;99540.59;;;10.74;79.77
9187;BME280;7273;48.902;9.410;2022-11-12T10:05:44;99535.34;;;10.68;79.78
9187;BME280;7273;48.902;9.410;2022-11-12T10:08:45;99544.78;;;10.82;79.35
9187;BME280;7273;48.902;9.410;2022-11-12T10:11:34;99540.50;;;10.69;79.12
9187;BME280;7273;48.902;9.410;2022-11-12T10:14:47;99543.84;;;10.88;78.65
9187;BME280;7273;48.902;9.410;2022-11-12T10:18:01;99544.91;;;10.87;78.69
9187;BME280;7273;48.902;9.410;2022-11-12T10:25:28;99537.66;;;11.04;78.53
9187;BME280;7273;48.902;9.410;2022-11-12T10:27:54;99538.00;;;11.08;78.07
9187;BME280;7273;48.902;9.410;2022-11-12T10:30:22;99528.38;;;11.17;77.94
9187;BME280;7273;48.902;9.410;2022-11-12T10:32:49;99526.50;;;11.17;78.02
9187;BME280;7273;48.902;9.410;2022-11-12T10:35:18;99531.44;;;11.20;77.92
9187;BME280;7273;48.902;9.410;2022-11-12T10:38:00;99532.84;;;11.23;77.94
9187;BME280;7273;48.902;9.410;2022-11-12T10:40:28;99528.31;;;11.28;77.91
9187;BME280;7273;48.902;9.410;2022-11-12T10:43:00;99528.81;;;11.25;78.02
9187;BME280;7273;48.902;9.410;2022-11-12T10:45:27;99520.63;;;11.37;77.92
9187;BME280;7273;48.902;9.410;2022-11-12T10:47:52;99520.28;;;11.33;77.91
9187;BME280;7273;48.902;9.410;2022-11-12T10:50:27;99517.31;;;11.35;78.00
9187;BME280;7273;48.902;9.410;2022-11-12T10:52:56;99517.34;;;11.51;77.64
9187;BME280;7273;48.902;9.410;2022-11-12T10:55:25;99521.28;;;11.44;77.56
9187;BME280;7273;48.902;9.410;2022-11-12T10:58:13;99517.50;;;11.45;77.54
9187;BME280;7273;48.902;9.410;2022-11-12T11:03:35;99511.59;;;11.64;77.50
9187;BME280;7273;48.902;9.410;2022-11-12T11:08:45;99511.75;;;11.74;77.77
9187;BME280;7273;48.902;9.410;2022-11-12T11:11:26;99509.97;;;11.80;77.69
9187;BME280;7273;48.902;9.410;2022-11-12T11:13:54;99512.75;;;11.85;77.75
9187;BME280;7273;48.902;9.410;2022-11-12T11:16:23;99503.88;;;11.89;77.69
9187;BME280;7273;48.902;9.410;2022-11-12T11:18:53;99498.44;;;11.89;77.69
9187;BME280;7273;48.902;9.410;2022-11-12T11:21:56;99499.97;;;12.02;77.37
9187;BME280;7273;48.902;9.410;2022-11-12T11:24:38;99499.47;;;12.05;77.11
9187;BME280;7273;48.902;9.410;2022-11-12T11:30:13;99491.53;;;12.20;77.38
9187;BME280;7273;48.902;9.410;2022-11-12T11:41:34;99494.69;;;12.34;77.22
9187;BME280;7273;48.902;9.410;2022-11-12T11:44:06;99487.94;;;12.36;77.53
9187;BME280;7273;48.902;9.410;2022-11-12T11:46:44;99485.03;;;12.43;77.36
9187;BME280;7273;48.902;9.410;2022-11-12T11:49:25;99484.03;;;12.49;77.59
9187;BME280;7273;48.902;9.410;2022-11-12T12:13:37;99452.75;;;12.68;76.99
9187;BME280;7273;48.902;9.410;2022-11-12T12:21:47;99450.44;;;12.81;76.51
9187;BME280;7273;48.902;9.410;2022-11-12T12:24:55;99449.56;;;12.76;76.49
9187;BME280;7273;48.902;9.410;2022-11-12T12:27:29;99450.13;;;12.78;76.59
9187;BME280;7273;48.902;9.410;2022-11-12T12:30:03;99448.75;;;12.75;76.86
9187;BME280;7273;48.902;9.410;2022-11-12T12:32:36;99448.03;;;12.85;76.89
9187;BME280;7273;48.902;9.410;2022-11-12T12:35:20;99439.34;;;12.83;76.61
9187;BME280;7273;48.902;9.410;2022-11-12T12:40:39;99429.38;;;12.93;76.73
9187;BME280;7273;48.902;9.410;2022-11-12T12:45:56;99428.81;;;12.91;77.02
9187;BME280;7273;48.902;9.410;2022-11-12T12:48:36;99417.78;;;13.03;76.90
9187;BME280;7273;48.902;9.410;2022-11-12T12:51:04;99421.91;;;13.05;77.08
9187;BME280;7273;48.902;9.410;2022-11-12T12:53:32;99424.94;;;13.09;77.00
9187;BME280;7273;48.902;9.410;2022-11-12T12:56:05;99413.53;;;13.12;76.70
9187;BME280;7273;48.902;9.410;2022-11-12T12:58:50;99426.28;;;13.11;76.68
9187;BME280;7273;48.902;9.410;2022-11-12T13:04:00;99415.69;;;13.10;76.69
9187;BME280;7273;48.902;9.410;2022-11-12T13:07:12;99413.28;;;13.13;76.55
9187;BME280;7273;48.902;9.410;2022-11-12T13:17:09;99406.53;;;13.21;76.17
9187;BME280;7273;48.902;9.410;2022-11-12T13:20:17;99401.66;;;13.23;76.12
9187;BME280;7273;48.902;9.410;2022-11-12T13:22:51;99397.88;;;13.24;76.45
9187;BME280;7273;48.902;9.410;2022-11-12T13:32:56;99395.44;;;13.27;76.29
9187;BME280;7273;48.902;9.410;2022-11-12T13:37:54;99394.69;;;13.32;75.43
9187;BME280;7273;48.902;9.410;2022-11-12T13:43:12;99398.94;;;13.23;76.22
9187;BME280;7273;48.902;9.410;2022-11-12T13:45:53;99391.13;;;13.31;76.35
9187;BME280;7273;48.902;9.410;2022-11-12T13:48:25;99391.44;;;13.35;76.21
9187;BME280;7273;48.902;9.410;2022-11-12T13:50:57;99392.72;;;13.27;76.35
9187;BME280;7273;48.902;9.410;2022-11-12T13:53:25;99393.84;;;13.31;76.49
9187;BME280;7273;48.902;9.410;2022-11-12T13:55:53;99390.00;;;13.27;76.33
9187;BME280;7273;48.902;9.410;2022-11-12T13:58:30;99390.88;;;13.33;76.17
9187;BME280;7273;48.902;9.410;2022-11-12T14:00:59;99382.41;;;13.29;76.81
9187;BME280;7273;48.902;9.410;2022-11-12T14:03:30;99384.34;;;13.29;76.55
9187;BME280;7273;48.902;9.410;2022-11-12T14:06:00;99375.31;;;13.23;76.80
9187;BME280;7273;48.902;9.410;2022-11-12T14:13:59;99386.47;;;13.22;76.71
9187;BME280;7273;48.902;9.410;2022-11-12T14:16:48;99388.38;;;13.26;76.65
9187;BME280;7273;48.902;9.410;2022-11-12T14:20:20;99387.81;;;13.24;76.66
9187;BME280;7273;48.902;9.410;2022-11-12T14:22:27;99384.81;;;13.21;76.83
9187;BME280;7273;48.902;9.410;2022-11-12T14:24:59;99374.16;;;13.14;77.00
9187;BME280;7273;48.902;9.410;2022-11-12T14:30:22;99369.00;;;13.13;77.22
9187;BME280;7273;48.902;9.410;2022-11-12T14:32:51;99369.78;;;13.08;77.41
9187;BME280;7273;48.902;9.410;2022-11-12T14:37:56;99368.88;;;12.98;77.41
9187;BME280;7273;48.902;9.410;2022-11-12T14:40:24;99363.66;;;12.96;77.75
9187;BME280;7273;48.902;9.410;2022-11-12T14:42:51;99365.84;;;12.94;77.63
9187;BME280;7273;48.902;9.410;2022-11-12T14:45:20;99357.09;;;12.87;77.93
9187;BME280;7273;48.902;9.410;2022-11-12T14:47:47;99359.50;;;12.84;77.86
9187;BME280;7273;48.902;9.410;2022-11-12T14:52:53;99356.13;;;12.72;77.86
9187;BME280;7273;48.902;9.410;2022-11-12T14:55:23;99361.50;;;12.62;77.95
9187;BME280;7273;48.902;9.410;2022-11-12T14:57:50;99355.50;;;12.60;78.18
9187;BME280;7273;48.902;9.410;2022-11-12T15:00:34;99353.00;;;12.53;78.24
9187;BME280;7273;48.902;9.410;2022-11-12T15:03:01;99352.31;;;12.41;78.55
9187;BME280;7273;48.902;9.410;2022-11-12T15:05:28;99349.31;;;12.38;78.36
9187;BME280;7273;48.902;9.410;2022-11-12T15:08:03;99355.72;;;12.27;78.59
9187;BME280;7273;48.902;9.410;2022-11-12T15:10:40;99343.53;;;12.29;78.69
9187;BME280;7273;48.902;9.410;2022-11-12T15:13:12;99345.00;;;12.15;78.75
9187;BME280;7273;48.902;9.410;2022-11-12T15:18:21;99338.66;;;12.04;79.07
9187;BME280;7273;48.902;9.410;2022-11-12T15:23:35;99330.94;;;11.91;78.89
9187;BME280;7273;48.902;9.410;2022-11-12T15:26:00;99327.06;;;11.87;79.04
9187;BME280;7273;48.902;9.410;2022-11-12T15:28:26;99324.81;;;11.79;79.22